createdAt,value
2019-02-23T00:02:12.703Z,2.37
2019-02-23T00:04:41.091Z,2.30
2019-02-23T00:07:09.454Z,2.10
2019-02-23T00:09:38.001Z,2.40
2019-02-23T00:12:06.359Z,2.40
2019-02-23T00:14:34.647Z,2.10
2019-02-23T00:17:03.717Z,2.00
2019-02-23T00:19:32.065Z,2.30
2019-02-23T00:22:00.438Z,2.27
2019-02-23T00:24:28.813Z,2.30
2019-02-23T00:26:57.089Z,2.10
2019-02-23T00:29:25.463Z,2.20
2019-02-23T00:31:53.905Z,2.40
2019-02-23T00:34:22.278Z,2.27
2019-02-23T00:36:50.681Z,2.30
2019-02-23T00:39:19.052Z,2.17
2019-02-23T00:41:47.334Z,2.13
2019-02-23T00:44:15.814Z,2.07
2019-02-23T00:46:44.180Z,2.10
2019-02-23T00:49:12.524Z,2.10
2019-02-23T00:51:40.924Z,2.23
2019-02-23T00:54:09.277Z,2.10
2019-02-23T00:56:37.575Z,2.30
2019-02-23T00:59:05.941Z,2.17
2019-02-23T01:01:34.310Z,2.27
2019-02-23T01:04:02.662Z,2.23
2019-02-23T01:06:31.008Z,2.00
2019-02-23T01:08:59.534Z,2.20
2019-02-23T01:11:27.911Z,2.37
2019-02-23T01:13:56.198Z,2.20
2019-02-23T01:16:24.576Z,2.10
2019-02-23T01:18:52.912Z,2.10
2019-02-23T01:21:21.262Z,2.13
2019-02-23T01:23:49.556Z,2.43
2019-02-23T01:26:17.862Z,2.00
2019-02-23T01:28:47.073Z,2.47
2019-02-23T01:31:15.407Z,2.50
2019-02-23T01:33:43.693Z,2.27
2019-02-23T01:36:12.075Z,2.10
2019-02-23T01:38:40.433Z,2.20
2019-02-23T01:41:08.885Z,1.90
2019-02-23T01:43:37.244Z,2.03
2019-02-23T01:46:05.618Z,2.30
2019-02-23T01:48:33.903Z,2.10
2019-02-23T01:51:02.204Z,2.20
2019-02-23T01:53:30.590Z,2.10
2019-02-23T01:55:58.939Z,2.20
2019-02-23T01:58:27.271Z,2.03
2019-02-23T02:00:55.617Z,2.30
2019-02-23T02:03:24.295Z,2.00
2019-02-23T02:05:52.929Z,2.00
2019-02-23T02:08:21.385Z,1.90
2019-02-23T02:10:49.977Z,2.10
2019-02-23T02:13:18.355Z,2.07
2019-02-23T02:15:46.638Z,2.07
2019-02-23T02:18:15.039Z,2.17
2019-02-23T02:20:43.409Z,1.83
2019-02-23T02:23:11.809Z,2.10
2019-02-23T02:25:40.159Z,2.07
2019-02-23T02:28:08.514Z,2.17
2019-02-23T02:30:36.840Z,1.90
2019-02-23T02:33:05.188Z,2.20
2019-02-23T02:35:33.511Z,2.17
2019-02-23T02:38:02.047Z,2.17
2019-02-23T02:40:30.338Z,2.20
2019-02-23T02:42:58.643Z,1.90
2019-02-23T02:45:27.039Z,2.17
2019-02-23T02:47:55.565Z,1.83
2019-02-23T02:50:24.944Z,1.97
2019-02-23T02:52:53.573Z,2.23
2019-02-23T02:55:21.966Z,2.10
2019-02-23T02:57:50.736Z,2.00
2019-02-23T03:00:19.084Z,2.23
2019-02-23T03:02:47.469Z,1.90
2019-02-23T03:05:15.960Z,2.10
2019-02-23T03:07:44.420Z,1.90
2019-02-23T03:10:12.796Z,1.93
2019-02-23T03:12:41.288Z,2.20
2019-02-23T03:15:09.636Z,1.97
2019-02-23T03:17:37.950Z,1.97
2019-02-23T03:20:07.969Z,2.33
2019-02-23T03:22:36.345Z,2.10
2019-02-23T03:25:05.767Z,1.97
2019-02-23T03:27:34.159Z,2.10
2019-02-23T03:30:02.437Z,2.10
2019-02-23T03:32:30.808Z,2.10
2019-02-23T03:34:59.181Z,2.20
2019-02-23T03:37:27.538Z,2.20
2019-02-23T03:39:55.946Z,1.97
2019-02-23T03:42:24.303Z,2.10
2019-02-23T03:44:52.939Z,2.10
2019-02-23T03:47:21.357Z,2.30
2019-02-23T03:49:49.745Z,2.10
2019-02-23T03:52:18.107Z,2.07
2019-02-23T03:54:46.423Z,2.10
2019-02-23T03:57:14.803Z,2.20
2019-02-23T03:59:43.173Z,2.07
2019-02-23T04:02:11.562Z,2.27
2019-02-23T04:04:39.876Z,1.97
2019-02-23T04:07:08.236Z,2.10
2019-02-23T04:09:36.672Z,2.00
2019-02-23T04:12:05.045Z,1.73
2019-02-23T04:14:33.413Z,1.90
2019-02-23T04:17:02.048Z,2.00
2019-02-23T04:19:30.417Z,2.00
2019-02-23T04:21:58.773Z,1.87
2019-02-23T04:24:27.125Z,2.03
2019-02-23T04:26:55.495Z,1.87
2019-02-23T04:29:23.777Z,2.10
2019-02-23T04:31:52.075Z,2.00
2019-02-23T04:34:20.433Z,2.33
2019-02-23T04:36:48.823Z,2.10
2019-02-23T04:39:17.188Z,1.80
2019-02-23T04:41:45.558Z,1.93
2019-02-23T04:44:14.095Z,1.77
2019-02-23T04:46:42.486Z,1.90
2019-02-23T04:49:10.909Z,2.10
2019-02-23T04:51:39.298Z,1.93
2019-02-23T04:54:07.663Z,2.20
2019-02-23T04:56:36.047Z,2.10
2019-02-23T04:59:04.342Z,2.10
2019-02-23T05:01:32.712Z,2.00
2019-02-23T05:04:00.997Z,1.97
2019-02-23T05:06:29.305Z,1.90
2019-02-23T05:08:57.663Z,2.10
2019-02-23T05:11:26.287Z,2.00
2019-02-23T05:13:54.745Z,1.87
2019-02-23T05:16:23.162Z,1.87
2019-02-23T05:18:51.504Z,1.90
2019-02-23T05:21:26.182Z,1.90
2019-02-23T05:23:49.822Z,1.90
2019-02-23T05:26:18.190Z,1.70
2019-02-23T05:28:46.468Z,1.80
2019-02-23T05:31:14.866Z,2.10
2019-02-23T05:33:43.207Z,2.00
2019-02-23T05:36:11.504Z,1.80
2019-02-23T05:38:40.073Z,2.10
2019-02-23T05:41:08.429Z,2.20
2019-02-23T05:43:36.713Z,1.90
2019-02-23T05:46:05.092Z,2.00
2019-02-23T05:48:33.457Z,1.80
2019-02-23T05:51:01.762Z,2.07
2019-02-23T05:53:30.108Z,2.10
2019-02-23T05:55:58.497Z,1.93
2019-02-23T05:58:26.838Z,2.10
2019-02-23T06:00:55.218Z,1.50
2019-02-23T06:03:23.599Z,1.97
2019-02-23T06:05:51.915Z,1.80
2019-02-23T06:08:20.309Z,1.73
2019-02-23T06:10:48.587Z,1.90
2019-02-23T06:13:16.953Z,2.00
2019-02-23T06:15:45.243Z,1.90
2019-02-23T06:18:13.608Z,2.20
2019-02-23T06:20:41.894Z,1.83
2019-02-23T06:23:10.275Z,1.60
2019-02-23T06:25:38.642Z,1.80
2019-02-23T06:28:07.023Z,1.80
2019-02-23T06:30:35.389Z,2.00
2019-02-23T06:33:03.677Z,1.90
2019-02-23T06:35:32.037Z,1.70
2019-02-23T06:38:00.422Z,1.63
2019-02-23T06:40:28.799Z,1.73
2019-02-23T06:42:57.946Z,1.80
2019-02-23T06:45:26.549Z,1.40
2019-02-23T06:47:54.911Z,1.50
2019-02-23T06:50:23.286Z,1.80
2019-02-23T06:52:51.567Z,1.80
2019-02-23T06:55:19.862Z,1.60
2019-02-23T06:57:48.218Z,1.33
2019-02-23T07:00:16.763Z,1.60
2019-02-23T07:02:45.124Z,1.50
2019-02-23T07:05:13.437Z,1.60
2019-02-23T07:07:41.795Z,1.60
2019-02-23T07:10:14.906Z,1.80
2019-02-23T07:12:43.266Z,1.43
2019-02-23T07:15:11.642Z,1.50
2019-02-23T07:17:40.139Z,1.50
2019-02-23T07:20:10.270Z,1.60
2019-02-23T07:22:38.742Z,1.43
2019-02-23T07:25:08.562Z,1.70
2019-02-23T07:27:36.836Z,1.60
2019-02-23T07:30:08.640Z,1.50
2019-02-23T07:32:36.938Z,1.40
2019-02-23T07:35:06.467Z,1.33
2019-02-23T07:37:34.831Z,1.50
2019-02-23T07:40:03.596Z,1.40
2019-02-23T07:42:32.125Z,1.60
2019-02-23T07:45:00.498Z,1.50
2019-02-23T07:47:28.876Z,1.60
2019-02-23T07:49:57.236Z,1.57
2019-02-23T07:52:26.538Z,1.60
2019-02-23T07:54:55.099Z,1.40
2019-02-23T07:57:23.423Z,1.50
2019-02-23T07:59:51.741Z,1.43
2019-02-23T08:02:20.119Z,1.60
2019-02-23T08:04:48.414Z,1.50
2019-02-23T08:07:16.849Z,1.70
2019-02-23T08:09:45.232Z,1.37
2019-02-23T08:12:13.671Z,1.40
2019-02-23T08:14:42.174Z,1.23
2019-02-23T08:17:10.679Z,1.30
2019-02-23T08:19:39.038Z,1.40
2019-02-23T08:22:07.499Z,1.47
2019-02-23T08:24:35.871Z,1.67
2019-02-23T08:27:04.227Z,1.27
2019-02-23T08:29:32.647Z,1.40
2019-02-23T08:32:00.988Z,1.40
2019-02-23T08:34:30.988Z,1.60
2019-02-23T08:36:59.339Z,1.43
2019-02-23T08:39:27.635Z,1.40
2019-02-23T08:41:56.047Z,1.40
2019-02-23T08:44:24.341Z,1.33
2019-02-23T08:46:52.999Z,1.50
2019-02-23T08:49:21.422Z,1.50
2019-02-23T08:51:49.957Z,1.67
2019-02-23T08:54:18.396Z,1.40
2019-02-23T08:56:46.671Z,1.40
2019-02-23T08:59:15.060Z,1.50
2019-02-23T09:01:43.426Z,1.57
2019-02-23T09:04:11.771Z,1.60
2019-02-23T09:06:40.146Z,1.40
2019-02-23T09:09:08.441Z,1.33
2019-02-23T09:11:36.810Z,1.30
2019-02-23T09:14:05.184Z,1.50
2019-02-23T09:16:33.572Z,1.50
2019-02-23T09:19:01.924Z,1.60
2019-02-23T09:21:30.294Z,1.70
2019-02-23T09:23:58.591Z,1.60
2019-02-23T09:26:27.007Z,1.70
2019-02-23T09:28:55.288Z,2.00
2019-02-23T09:31:23.618Z,1.80
2019-02-23T09:33:51.981Z,1.83
2019-02-23T09:36:20.332Z,1.90
2019-02-23T09:38:48.629Z,1.90
2019-02-23T09:41:16.910Z,1.90
2019-02-23T09:43:45.230Z,1.80
2019-02-23T09:46:13.577Z,1.60
2019-02-23T09:48:42.013Z,1.93
2019-02-23T09:51:10.363Z,1.70
2019-02-23T09:53:38.763Z,2.20
2019-02-23T09:56:07.127Z,1.90
2019-02-23T09:58:35.535Z,1.73
2019-02-23T10:01:03.874Z,1.53
2019-02-23T10:03:32.161Z,1.70
2019-02-23T10:06:00.542Z,1.60
2019-02-23T10:08:28.929Z,1.50
2019-02-23T10:10:57.715Z,1.50
2019-02-23T10:13:26.111Z,1.83
2019-02-23T10:15:54.458Z,1.50
2019-02-23T10:18:22.870Z,1.60
2019-02-23T10:20:51.226Z,1.40
2019-02-23T10:23:22.327Z,1.23
2019-02-23T10:25:49.619Z,1.20
2019-02-23T10:28:17.975Z,1.30
2019-02-23T10:30:46.395Z,1.30
2019-02-23T10:33:14.685Z,1.30
2019-02-23T10:35:43.064Z,1.50
2019-02-23T10:38:11.335Z,1.33
2019-02-23T10:40:39.724Z,1.27
2019-02-23T10:43:08.032Z,1.43
2019-02-23T10:45:36.388Z,1.17
2019-02-23T10:48:04.847Z,1.40
2019-02-23T10:50:33.276Z,1.10
2019-02-23T10:53:01.584Z,1.03
2019-02-23T10:55:29.946Z,1.13
2019-02-23T10:57:58.275Z,0.90
2019-02-23T11:00:26.576Z,1.00
2019-02-23T11:02:55.325Z,1.00
2019-02-23T11:05:23.799Z,1.07
2019-02-23T11:07:52.396Z,0.70
2019-02-23T11:10:21.533Z,3.73
2019-02-23T11:12:49.884Z,2.23
2019-02-23T11:15:19.818Z,1.67
2019-02-23T11:17:48.685Z,1.80
2019-02-23T11:20:17.367Z,1.50
2019-02-23T11:22:45.730Z,1.53
2019-02-23T11:25:14.096Z,1.40
2019-02-23T11:27:42.372Z,1.10
2019-02-23T11:30:15.160Z,1.30
2019-02-23T11:32:43.432Z,1.40
2019-02-23T11:35:17.424Z,1.27
2019-02-23T11:37:45.835Z,1.17
2019-02-23T11:40:15.428Z,1.10
2019-02-23T11:42:43.801Z,1.30
2019-02-23T11:45:12.287Z,1.40
2019-02-23T11:47:40.697Z,1.13
2019-02-23T11:50:10.193Z,1.50
2019-02-23T11:52:39.476Z,1.10
2019-02-23T11:55:08.553Z,1.20
2019-02-23T11:57:36.919Z,1.30
2019-02-23T12:00:08.457Z,1.27
2019-02-23T12:02:36.752Z,1.20
2019-02-23T12:05:05.045Z,1.10
2019-02-23T12:07:33.326Z,1.30
2019-02-23T12:10:01.680Z,1.20
2019-02-23T12:12:29.967Z,1.00
2019-02-23T12:14:58.313Z,1.13
2019-02-23T12:17:26.657Z,1.10
2019-02-23T12:19:55.436Z,1.10
2019-02-23T12:22:23.821Z,1.00
2019-02-23T12:24:52.222Z,1.33
2019-02-23T12:27:20.583Z,1.00
2019-02-23T12:29:48.875Z,1.30
2019-02-23T12:32:17.172Z,1.20
2019-02-23T12:34:45.451Z,1.20
2019-02-23T12:37:13.910Z,1.60
2019-02-23T12:39:42.597Z,1.10
2019-02-23T12:42:10.875Z,1.13
2019-02-23T12:44:39.151Z,1.00
2019-02-23T12:47:07.521Z,1.30
2019-02-23T12:49:35.874Z,1.20
2019-02-23T12:52:04.164Z,1.07
2019-02-23T12:54:32.576Z,1.07
2019-02-23T12:57:00.929Z,1.00
2019-02-23T12:59:29.304Z,1.23
2019-02-23T13:01:57.643Z,0.93
2019-02-23T13:04:26.003Z,1.10
2019-02-23T13:06:54.293Z,1.20
2019-02-23T13:09:25.191Z,1.03
2019-02-23T13:11:59.500Z,1.10
2019-02-23T13:14:40.036Z,1.03
2019-02-23T13:17:17.724Z,1.20
2019-02-23T13:20:09.842Z,1.10
2019-02-23T13:22:41.375Z,1.10
2019-02-23T13:25:16.066Z,1.10
2019-02-23T13:28:10.340Z,1.00
2019-02-23T13:30:59.968Z,1.00
2019-02-23T13:33:31.580Z,1.10
2019-02-23T13:36:21.501Z,1.00
2019-02-23T13:39:11.492Z,0.90
2019-02-23T13:41:58.084Z,1.00
2019-02-23T13:44:35.908Z,1.00
2019-02-23T13:47:13.432Z,0.90
2019-02-23T13:49:45.218Z,1.00
2019-02-23T13:52:26.102Z,0.90
2019-02-23T13:55:14.471Z,1.10
2019-02-23T13:57:48.917Z,1.03
2019-02-23T14:00:40.091Z,0.90
2019-02-23T14:03:23.798Z,1.20
2019-02-23T14:06:07.355Z,1.00
2019-02-23T14:09:04.826Z,1.10
2019-02-23T14:11:36.564Z,1.20
2019-02-23T14:14:24.551Z,1.03
2019-02-23T14:17:01.616Z,1.20
2019-02-23T14:20:04.725Z,0.97
2019-02-23T14:22:52.915Z,1.00
2019-02-23T14:25:24.598Z,0.90
2019-02-23T14:28:11.065Z,1.10
2019-02-23T14:31:00.704Z,0.93
2019-02-23T14:33:53.163Z,1.13
2019-02-23T14:36:42.647Z,1.00
2019-02-23T14:39:26.657Z,1.00
2019-02-23T14:42:01.298Z,1.30
2019-02-23T14:44:41.797Z,1.30
2019-02-23T14:47:15.028Z,1.03
2019-02-23T14:49:50.103Z,0.93
2019-02-23T14:52:38.090Z,0.90
2019-02-23T14:55:09.753Z,1.10
2019-02-23T14:58:05.732Z,0.90
2019-02-23T15:00:53.821Z,1.10
2019-02-23T15:03:27.963Z,1.17
2019-02-23T15:06:11.756Z,1.10
2019-02-23T15:08:48.931Z,1.20
2019-02-23T15:11:32.617Z,0.97
2019-02-23T15:14:12.466Z,1.10
2019-02-23T15:16:58.822Z,0.90
2019-02-23T15:19:36.484Z,1.10
2019-02-23T15:22:11.294Z,1.17
2019-02-23T15:24:48.678Z,1.00
2019-02-23T15:27:23.294Z,0.90
2019-02-23T15:29:55.702Z,1.07
2019-02-23T15:32:59.062Z,1.10
2019-02-23T15:35:54.785Z,0.90
2019-02-23T15:38:44.552Z,1.10
2019-02-23T15:41:37.335Z,1.40
2019-02-23T15:44:09.189Z,1.20
2019-02-23T15:46:41.099Z,1.33
2019-02-23T15:49:29.991Z,1.20
2019-02-23T15:51:59.392Z,1.30
2019-02-23T15:54:29.206Z,1.20
2019-02-23T15:56:57.942Z,1.40
2019-02-23T15:59:26.596Z,1.20
2019-02-23T16:01:55.095Z,1.40
2019-02-23T16:04:23.471Z,1.10
2019-02-23T16:06:51.828Z,1.30
2019-02-23T16:09:20.318Z,1.37
2019-02-23T16:11:48.707Z,1.00
2019-02-23T16:14:17.117Z,1.20
2019-02-23T16:16:47.429Z,1.47
2019-02-23T16:19:15.541Z,1.00
2019-02-23T16:21:43.939Z,1.20
2019-02-23T16:24:12.287Z,1.27
2019-02-23T16:26:40.661Z,1.20
2019-02-23T16:29:09.015Z,1.20
2019-02-23T16:31:37.314Z,1.20
2019-02-23T16:34:07.386Z,1.07
2019-02-23T16:36:35.941Z,1.20
2019-02-23T16:39:07.891Z,1.27
2019-02-23T16:41:36.451Z,1.10
2019-02-23T16:44:05.191Z,1.20
2019-02-23T16:46:33.552Z,1.37
2019-02-23T16:49:01.913Z,1.43
2019-02-23T16:51:30.271Z,1.33
2019-02-23T16:53:58.918Z,1.33
2019-02-23T16:56:27.399Z,1.50
2019-02-23T16:58:55.866Z,1.40
2019-02-23T17:01:24.224Z,1.30
2019-02-23T17:03:52.596Z,1.07
2019-02-23T17:06:20.979Z,1.40
2019-02-23T17:08:49.456Z,1.40
2019-02-23T17:11:17.964Z,1.20
2019-02-23T17:13:46.304Z,1.00
2019-02-23T17:16:14.688Z,1.37
2019-02-23T17:18:43.066Z,1.00
2019-02-23T17:21:11.438Z,1.00
2019-02-23T17:23:39.948Z,1.10
2019-02-23T17:26:08.379Z,1.13
2019-02-23T17:28:36.891Z,1.20
2019-02-23T17:31:05.225Z,0.90
2019-02-23T17:33:33.603Z,0.80
2019-02-23T17:36:02.033Z,1.00
2019-02-23T17:38:30.393Z,1.00
2019-02-23T17:40:59.652Z,1.00
2019-02-23T17:43:28.084Z,0.77
2019-02-23T17:45:56.487Z,0.87
2019-02-23T17:48:24.876Z,0.80
2019-02-23T17:50:53.238Z,0.80
2019-02-23T17:53:21.616Z,1.07
2019-02-23T17:55:49.986Z,1.00
2019-02-23T17:58:18.357Z,1.00
2019-02-23T18:00:46.737Z,1.10
2019-02-23T18:03:15.113Z,1.00
2019-02-23T18:05:43.518Z,0.90
2019-02-23T18:08:11.915Z,1.00
2019-02-23T18:10:40.272Z,1.00
2019-02-23T18:13:08.623Z,1.00
2019-02-23T18:15:36.927Z,1.20
2019-02-23T18:18:06.887Z,1.13
2019-02-23T18:20:35.405Z,0.90
2019-02-23T18:23:03.905Z,1.20
2019-02-23T18:25:32.238Z,1.20
2019-02-23T18:28:00.589Z,1.43
2019-02-23T18:30:28.976Z,1.20
2019-02-23T18:32:57.327Z,1.40
2019-02-23T18:35:25.727Z,1.30
2019-02-23T18:37:54.169Z,1.30
2019-02-23T18:40:22.665Z,1.20
2019-02-23T18:42:50.972Z,1.30
2019-02-23T18:45:19.343Z,1.13
2019-02-23T18:47:47.722Z,1.20
2019-02-23T18:50:16.073Z,1.00
2019-02-23T18:52:44.674Z,1.27
2019-02-23T18:55:13.049Z,1.03
2019-02-23T18:57:41.425Z,1.30
2019-02-23T19:00:11.855Z,1.13
2019-02-23T19:02:40.265Z,1.20
2019-02-23T19:05:11.049Z,1.23
2019-02-23T19:07:39.397Z,1.20
2019-02-23T19:10:14.810Z,1.30
2019-02-23T19:12:43.539Z,1.00
2019-02-23T19:15:13.821Z,1.10
2019-02-23T19:17:42.287Z,1.10
2019-02-23T19:20:13.476Z,1.40
2019-02-23T19:22:42.365Z,1.20
2019-02-23T19:25:12.210Z,1.20
2019-02-23T19:27:40.827Z,1.10
2019-02-23T19:30:15.227Z,1.13
2019-02-23T19:32:43.537Z,1.10
2019-02-23T19:35:12.293Z,1.20
2019-02-23T19:37:41.141Z,1.20
2019-02-23T19:40:09.877Z,1.20
2019-02-23T19:42:38.350Z,1.10
2019-02-23T19:45:09.538Z,1.20
2019-02-23T19:47:40.271Z,1.23
2019-02-23T19:50:20.642Z,1.10
2019-02-23T19:52:49.113Z,1.27
2019-02-23T19:55:17.460Z,1.30
2019-02-23T19:57:45.866Z,1.30
2019-02-23T20:00:14.286Z,1.33
2019-02-23T20:02:43.120Z,1.30
2019-02-23T20:05:11.536Z,1.47
2019-02-23T20:07:40.119Z,1.23
2019-02-23T20:10:09.955Z,1.30
2019-02-23T20:12:38.391Z,1.30
2019-02-23T20:15:10.436Z,1.30
2019-02-23T20:17:39.066Z,1.37
2019-02-23T20:20:08.547Z,1.23
2019-02-23T20:22:36.919Z,1.37
2019-02-23T20:25:07.609Z,1.23
2019-02-23T20:27:36.009Z,1.50
2019-02-23T20:30:09.767Z,1.47
2019-02-23T20:32:38.068Z,1.30
2019-02-23T20:35:08.131Z,1.20
2019-02-23T20:37:36.513Z,1.23
2019-02-23T20:40:07.487Z,1.30
2019-02-23T20:42:35.929Z,1.20
2019-02-23T20:45:06.027Z,1.20
2019-02-23T20:47:34.402Z,1.43
2019-02-23T20:50:03.033Z,1.40
2019-02-23T20:52:31.461Z,1.40
2019-02-23T20:54:59.824Z,1.30
2019-02-23T20:57:28.223Z,1.33
2019-02-23T20:59:56.591Z,1.60
2019-02-23T21:02:25.055Z,1.50
2019-02-23T21:04:53.470Z,1.40
2019-02-23T21:07:21.927Z,1.43
2019-02-23T21:09:50.301Z,1.30
2019-02-23T21:12:18.675Z,1.50
2019-02-23T21:14:47.222Z,1.30
2019-02-23T21:17:15.505Z,1.43
2019-02-23T21:19:43.894Z,1.40
2019-02-23T21:22:12.328Z,1.27
2019-02-23T21:24:40.638Z,1.30
2019-02-23T21:27:13.043Z,1.70
2019-02-23T21:29:39.000Z,1.40
2019-02-23T21:32:07.451Z,1.27
2019-02-23T21:34:35.806Z,1.40
2019-02-23T21:37:04.084Z,1.50
2019-02-23T21:39:32.388Z,1.40
2019-02-23T21:42:00.770Z,1.40
2019-02-23T21:44:29.113Z,1.50
2019-02-23T21:46:57.489Z,1.50
2019-02-23T21:49:25.864Z,1.57
2019-02-23T21:51:54.643Z,1.43
2019-02-23T21:54:23.001Z,1.50
2019-02-23T21:56:51.411Z,1.50
2019-02-23T21:59:19.697Z,1.20
2019-02-23T22:01:48.140Z,1.27
2019-02-23T22:04:16.672Z,1.50
2019-02-23T22:06:45.075Z,1.30
2019-02-23T22:09:13.394Z,1.20
2019-02-23T22:11:41.829Z,1.60
2019-02-23T22:14:10.187Z,1.40
2019-02-23T22:16:38.608Z,1.30
2019-02-23T22:19:07.078Z,1.40
2019-02-23T22:21:35.484Z,1.33
2019-02-23T22:24:03.866Z,1.40
2019-02-23T22:26:32.216Z,1.40
2019-02-23T22:29:00.804Z,1.50
2019-02-23T22:31:29.250Z,1.40
2019-02-23T22:33:57.641Z,1.30
2019-02-23T22:36:26.056Z,1.60
2019-02-23T22:38:54.757Z,1.30
2019-02-23T22:41:23.097Z,1.60
2019-02-23T22:43:51.415Z,1.50
2019-02-23T22:46:19.771Z,1.50
2019-02-23T22:48:48.088Z,1.50
2019-02-23T22:51:16.458Z,1.30
2019-02-23T22:53:44.844Z,1.30
2019-02-23T22:56:13.531Z,1.40
2019-02-23T22:58:41.882Z,1.50
2019-02-23T23:01:10.369Z,1.30
2019-02-23T23:03:38.769Z,1.40
2019-02-23T23:06:07.068Z,1.50
2019-02-23T23:08:35.451Z,1.20
2019-02-23T23:11:03.817Z,1.33
2019-02-23T23:13:32.212Z,1.30
2019-02-23T23:16:00.570Z,1.30
2019-02-23T23:18:28.900Z,1.40
2019-02-23T23:20:57.264Z,1.27
2019-02-23T23:23:25.652Z,1.30
2019-02-23T23:25:53.978Z,1.20
2019-02-23T23:28:22.286Z,1.40
2019-02-23T23:30:50.723Z,1.43
2019-02-23T23:33:19.094Z,1.40
2019-02-23T23:35:47.462Z,1.40
2019-02-23T23:38:15.755Z,1.50
2019-02-23T23:40:44.108Z,1.50
2019-02-23T23:43:12.492Z,1.33
2019-02-23T23:45:40.774Z,1.37
2019-02-23T23:48:09.144Z,1.37
2019-02-23T23:50:37.453Z,1.20
2019-02-23T23:53:05.832Z,1.33
2019-02-23T23:55:34.160Z,1.37
2019-02-23T23:58:02.443Z,1.40
